Time;durP1;ratioP1;P1;durP2;ratioP2;P2;SDS_P1;SDS_P2;PMS_P1;PMS_P2;Temp;Humidity;BMP_temperature;BMP_pressure;BME280_temperature;BME280_humidity;BME280_pressure;Samples;Min_cycle;Max_cycle;Signal;HPM_P1;HPM_P2
2022/10/01 00:02:24;;;;;;;3.63;2.70;;;;;;;16.32;100.00;100676.34;5012714;28;20049;-72
2022/10/01 00:04:52;;;;;;;3.60;2.67;;;;;;;16.28;100.00;100665.09;5030741;28;20053;-72
2022/10/01 00:07:41;;;;;;;3.45;2.85;;;;;;;16.38;100.00;100659.31;5031140;28;20061;-72
2022/10/01 00:10:14;;;;;;;5.03;2.67;;;;;;;16.42;100.00;100658.69;5017865;28;20049;-72
2022/10/01 00:12:53;;;;;;;2.95;2.53;;;;;;;16.37;100.00;100656.84;5030964;28;20041;-72
2022/10/01 00:15:34;;;;;;;2.47;2.25;;;;;;;16.33;100.00;100662.19;5015393;28;20064;-72
2022/10/01 00:18:10;;;;;;;2.97;2.40;;;;;;;16.35;100.00;100653.59;5031340;28;20408;-71
2022/10/01 00:20:42;;;;;;;2.53;2.30;;;;;;;16.26;100.00;100648.03;4997468;28;20053;-72
2022/10/01 00:23:12;;;;;;;3.13;2.50;;;;;;;16.33;100.00;100653.91;5012123;28;20420;-72
2022/10/01 00:25:40;;;;;;;2.53;2.20;;;;;;;16.25;100.00;100640.91;5031381;28;20049;-72
2022/10/01 00:28:09;;;;;;;2.95;2.42;;;;;;;16.32;100.00;100643.22;5031356;28;20042;-72
2022/10/01 00:30:37;;;;;;;2.63;2.42;;;;;;;16.24;100.00;100633.75;5029770;28;20049;-72
2022/10/01 00:33:07;;;;;;;2.97;2.42;;;;;;;16.22;100.00;100638.75;5029703;28;20057;-71
2022/10/01 00:35:36;;;;;;;2.88;2.55;;;;;;;16.26;100.00;100637.00;5030517;28;20504;-72
2022/10/01 00:38:03;;;;;;;3.08;2.60;;;;;;;16.24;100.00;100636.50;5031345;28;20060;-72
2022/10/01 00:40:31;;;;;;;2.95;2.55;;;;;;;16.19;100.00;100650.44;5033701;28;20084;-71
2022/10/01 00:42:59;;;;;;;4.88;2.47;;;;;;;16.24;100.00;100650.31;5028837;28;20056;-72
2022/10/01 00:45:28;;;;;;;2.45;2.00;;;;;;;16.25;100.00;100654.69;5031332;28;20048;-72
2022/10/01 00:47:59;;;;;;;2.58;2.38;;;;;;;16.16;100.00;100651.06;5030834;28;20060;-72
2022/10/01 00:50:34;;;;;;;5.97;2.15;;;;;;;16.14;100.00;100653.34;5031409;28;20498;-71
2022/10/01 00:53:07;;;;;;;2.65;2.30;;;;;;;16.14;100.00;100645.06;5032821;28;20416;-73
2022/10/01 00:55:42;;;;;;;4.63;2.50;;;;;;;16.05;100.00;100651.34;5021346;28;20060;-71
2022/10/01 00:58:13;;;;;;;3.30;2.00;;;;;;;16.03;100.00;100653.59;5017015;28;20171;-71
2022/10/01 01:00:42;;;;;;;2.30;1.90;;;;;;;16.11;100.00;100650.09;5033059;28;20500;-72
2022/10/01 01:03:11;;;;;;;2.15;1.95;;;;;;;16.24;100.00;100664.13;5044364;28;20066;-72
2022/10/01 01:05:39;;;;;;;3.70;2.35;;;;;;;16.30;100.00;100662.03;5033151;28;20045;-72
2022/10/01 01:08:08;;;;;;;4.25;2.22;;;;;;;16.33;100.00;100669.69;5034694;28;20049;-72
2022/10/01 01:11:00;;;;;;;3.97;2.33;;;;;;;16.12;100.00;100673.78;5033877;28;20052;-72
2022/10/01 01:13:37;;;;;;;3.08;2.30;;;;;;;16.08;100.00;100672.00;5033318;28;20053;-72
2022/10/01 01:16:33;;;;;;;3.10;2.17;;;;;;;16.00;100.00;100676.31;5033263;28;20045;-72
2022/10/01 01:19:09;;;;;;;3.60;2.60;;;;;;;16.00;100.00;100673.56;5033804;28;20061;-72
2022/10/01 01:21:44;;;;;;;3.05;2.30;;;;;;;15.95;100.00;100669.00;5044360;28;20045;-72
2022/10/01 01:24:42;;;;;;;4.30;2.75;;;;;;;15.85;100.00;100681.03;5033082;28;20459;-72
2022/10/01 01:27:29;;;;;;;1.98;1.88;;;;;;;15.83;100.00;100683.31;5034294;28;20049;-72
2022/10/01 01:30:07;;;;;;;2.22;2.03;;;;;;;15.79;100.00;100687.81;5033718;28;20048;-72
2022/10/01 01:33:03;;;;;;;2.28;2.08;;;;;;;15.79;100.00;100693.34;5032876;28;20046;-72
2022/10/01 01:35:38;;;;;;;3.10;2.50;;;;;;;15.69;100.00;100688.88;5024009;28;20203;-72
2022/10/01 01:38:20;;;;;;;4.97;2.70;;;;;;;15.71;100.00;100697.69;5033550;28;20049;-72
2022/10/01 01:40:50;;;;;;;3.78;2.88;;;;;;;15.61;100.00;100683.28;5041811;28;20052;-72
2022/10/01 01:43:23;;;;;;;2.80;2.60;;;;;;;15.54;100.00;100692.00;5034335;28;20061;-72
2022/10/01 01:45:55;;;;;;;3.30;2.83;;;;;;;15.54;100.00;100687.28;5033076;28;20056;-72
2022/10/01 01:48:23;;;;;;;2.97;2.60;;;;;;;15.54;100.00;100678.22;5033747;28;20041;-72
2022/10/01 01:51:23;;;;;;;2.85;2.58;;;;;;;15.57;100.00;100686.69;5033717;28;20052;-72
2022/10/01 01:53:52;;;;;;;5.38;2.70;;;;;;;15.63;100.00;100681.06;5045889;28;20535;-72
2022/10/01 01:56:20;;;;;;;2.67;2.47;;;;;;;15.51;100.00;100676.91;5032840;28;20045;-72
2022/10/01 01:58:50;;;;;;;3.05;2.28;;;;;;;15.44;100.00;100676.47;5033467;28;20042;-72
2022/10/01 02:01:50;;;;;;;2.80;2.40;;;;;;;15.40;100.00;100686.53;5031287;28;20054;-72
2022/10/01 02:04:27;;;;;;;3.95;3.00;;;;;;;15.48;100.00;100677.50;5006237;28;20057;-72
2022/10/01 02:07:10;;;;;;;3.35;2.42;;;;;;;15.49;100.00;100684.66;5033411;28;20050;-72
2022/10/01 02:09:45;;;;;;;2.92;2.65;;;;;;;15.49;100.00;100686.59;5030234;28;20046;-72
2022/10/01 02:12:41;;;;;;;2.28;2.08;;;;;;;15.44;100.00;100684.75;5027449;28;20052;-71
2022/10/01 02:15:19;;;;;;;3.88;2.80;;;;;;;15.38;100.00;100681.31;5022803;28;20045;-72
2022/10/01 02:18:05;;;;;;;4.05;2.60;;;;;;;15.30;100.00;100677.34;5032075;28;20049;-71
2022/10/01 02:20:41;;;;;;;5.22;2.35;;;;;;;15.28;100.00;100676.03;5028498;28;20057;-72
2022/10/01 02:23:16;;;;;;;3.78;2.60;;;;;;;15.26;100.00;100670.00;5022203;28;20037;-72
2022/10/01 02:25:50;;;;;;;3.13;2.70;;;;;;;15.22;100.00;100675.34;5025546;28;20487;-72
2022/10/01 02:28:21;;;;;;;;;;;;;;;15.20;100.00;100677.56;5033607;28;20033;-72
2022/10/01 02:30:52;;;;;;;2.95;2.65;;;;;;;15.12;100.00;100681.06;5032484;28;19925;-72
2022/10/01 02:33:26;;;;;;;4.07;3.35;;;;;;;15.05;100.00;100678.72;5039493;28;20053;-72
2022/10/01 02:35:57;;;;;;;4.32;3.17;;;;;;;14.96;100.00;100678.59;5034216;28;20511;-72
2022/10/01 02:38:25;;;;;;;6.00;3.45;;;;;;;14.93;100.00;100679.25;5035780;28;20049;-72
2022/10/01 02:40:57;;;;;;;5.30;3.65;;;;;;;14.90;100.00;100671.56;5033492;28;20396;-72
2022/10/01 02:43:32;;;;;;;4.53;3.38;;;;;;;14.89;100.00;100675.47;5033262;28;20522;-72
2022/10/01 02:46:17;;;;;;;6.88;4.20;;;;;;;14.92;100.00;100669.34;5034308;28;20042;-72
2022/10/01 02:48:45;;;;;;;5.38;4.03;;;;;;;14.91;100.00;100664.97;5034368;28;20045;-72
2022/10/01 02:51:42;;;;;;;5.63;3.95;;;;;;;14.90;100.00;100664.13;5033711;28;20396;-72
2022/10/01 02:54:21;;;;;;;5.20;4.25;;;;;;;14.88;100.00;100660.06;5015207;28;20065;-72
2022/10/01 02:57:36;;;;;;;5.10;3.97;;;;;;;14.80;100.00;100663.53;5013258;28;20048;-72
2022/10/01 02:59:41;;;;;;;5.65;4.18;;;;;;;14.80;100.00;100663.53;5023238;28;20060;-71
2022/10/01 03:02:10;;;;;;;5.20;4.18;;;;;;;14.75;100.00;100657.00;4997962;28;20381;-72
2022/10/01 03:04:38;;;;;;;5.72;4.45;;;;;;;14.62;100.00;100664.09;5031436;28;20057;-72
2022/10/01 03:07:05;;;;;;;4.90;4.00;;;;;;;14.63;100.00;100667.69;5031870;28;20388;-72
2022/10/01 03:09:35;;;;;;;5.18;4.47;;;;;;;14.68;100.00;100667.59;5031192;28;20052;-72
2022/10/01 03:12:05;;;;;;;9.30;4.47;;;;;;;14.70;100.00;100670.84;5031214;28;20045;-72
2022/10/01 03:14:33;;;;;;;6.35;4.32;;;;;;;14.67;100.00;100690.75;5014063;28;20054;-72
2022/10/01 03:17:01;;;;;;;6.65;4.47;;;;;;;14.65;100.00;100681.94;5031738;28;20515;-72
2022/10/01 03:19:28;;;;;;;6.28;4.78;;;;;;;14.69;100.00;100694.00;5031038;28;20056;-72
2022/10/01 03:21:56;;;;;;;6.15;4.45;;;;;;;14.69;100.00;100687.66;5029827;28;20050;-72
2022/10/01 03:24:24;;;;;;;7.95;4.90;;;;;;;14.72;100.00;100700.84;5030765;28;20491;-72
2022/10/01 03:26:54;;;;;;;8.63;4.85;;;;;;;14.71;100.00;100696.47;5031961;28;20055;-72
2022/10/01 03:29:25;;;;;;;7.20;4.75;;;;;;;14.71;100.00;100694.50;5030874;28;20056;-72
2022/10/01 03:31:53;;;;;;;6.60;5.07;;;;;;;14.68;100.00;100681.34;5035214;28;20049;-72
2022/10/01 03:34:23;;;;;;;8.18;5.43;;;;;;;14.67;100.00;100688.00;5044786;28;20063;-72
2022/10/01 03:36:51;;;;;;;7.40;4.68;;;;;;;14.61;100.00;100684.50;5030685;28;20400;-72
2022/10/01 03:39:19;;;;;;;9.65;5.32;;;;;;;14.58;100.00;100693.38;5036250;28;20061;-72
2022/10/01 03:41:47;;;;;;;9.77;5.45;;;;;;;14.61;100.00;100697.44;5031383;28;20037;-72
2022/10/01 03:44:15;;;;;;;9.30;5.45;;;;;;;14.62;100.00;100699.09;5031614;28;20053;-72
2022/10/01 03:46:43;;;;;;;10.65;5.57;;;;;;;14.63;100.00;100692.47;5030803;28;20080;-72
2022/10/01 03:49:11;;;;;;;9.48;5.35;;;;;;;14.55;100.00;100695.91;5031155;28;20052;-72
2022/10/01 03:51:39;;;;;;;7.50;5.28;;;;;;;14.67;100.00;100688.00;5037743;28;20054;-72
2022/10/01 03:54:07;;;;;;;11.70;5.32;;;;;;;14.70;100.00;100698.38;5030271;28;20046;-72
2022/10/01 03:56:36;;;;;;;8.18;5.32;;;;;;;14.68;100.00;100697.88;5030666;28;20041;-72
2022/10/01 03:59:04;;;;;;;10.13;5.80;;;;;;;14.63;100.00;100703.50;5031685;28;20122;-72
2022/10/01 04:01:32;;;;;;;10.95;5.82;;;;;;;14.61;100.00;100700.19;5030985;28;20052;-72
2022/10/01 04:04:00;;;;;;;7.65;5.30;;;;;;;14.57;100.00;100694.50;5017035;28;20408;-72
2022/10/01 04:06:31;;;;;;;9.77;6.18;;;;;;;14.55;100.00;100701.41;5031463;28;20050;-72
2022/10/01 04:09:00;;;;;;;9.82;5.90;;;;;;;14.56;100.00;100686.56;5030992;28;20510;-72
2022/10/01 04:11:29;;;;;;;9.98;6.03;;;;;;;14.43;100.00;100686.25;5035675;28;20048;-72
2022/10/01 04:13:57;;;;;;;9.50;6.20;;;;;;;14.41;100.00;100699.47;5044304;28;20498;-72
2022/10/01 04:16:24;;;;;;;7.35;5.35;;;;;;;14.36;100.00;100700.38;5017651;28;20061;-72
2022/10/01 04:18:52;;;;;;;11.25;5.65;;;;;;;14.32;100.00;100698.53;5030213;28;20054;-72
2022/10/01 04:21:20;;;;;;;9.13;5.07;;;;;;;14.27;100.00;100706.91;5045410;28;20045;-72
2022/10/01 04:23:49;;;;;;;8.55;5.65;;;;;;;14.19;100.00;100711.97;5045981;28;20071;-72
2022/10/01 04:26:18;;;;;;;11.55;5.32;;;;;;;14.16;100.00;100704.31;5044215;28;20373;-72
2022/10/01 04:28:46;;;;;;;9.18;5.78;;;;;;;14.16;100.00;100706.22;5034305;28;20050;-72
2022/10/01 04:31:23;;;;;;;7.43;5.28;;;;;;;14.15;100.00;100699.94;5033001;28;20050;-72
2022/10/01 04:33:53;;;;;;;7.18;5.20;;;;;;;14.08;100.00;100699.50;4992886;28;20523;-72
2022/10/01 04:36:22;;;;;;;9.32;5.50;;;;;;;14.04;100.00;100704.78;5034801;28;20057;-72
2022/10/01 04:38:52;;;;;;;7.60;5.95;;;;;;;14.05;100.00;100700.09;5035075;28;20056;-72
2022/10/01 04:41:29;;;;;;;7.75;4.95;;;;;;;14.02;100.00;100686.94;5040662;28;20052;-72
2022/10/01 04:43:58;;;;;;;8.13;5.55;;;;;;;13.94;100.00;100689.25;5034698;28;20041;-72
2022/10/01 04:46:30;;;;;;;9.52;5.90;;;;;;;14.04;100.00;100690.22;5033875;28;20049;-72
2022/10/01 04:48:58;;;;;;;9.80;6.30;;;;;;;14.06;100.00;100686.03;5034463;28;20056;-71
2022/10/01 04:51:28;;;;;;;9.30;5.70;;;;;;;14.00;100.00;100686.41;5034430;28;20044;-71
2022/10/01 04:53:56;;;;;;;7.15;4.60;;;;;;;13.96;100.00;100673.28;5033560;28;20041;-72
2022/10/01 04:56:24;;;;;;;9.35;5.55;;;;;;;13.96;100.00;100683.44;5032571;28;20057;-71
2022/10/01 04:58:52;;;;;;;7.25;5.20;;;;;;;13.93;100.00;100673.84;5036961;28;20063;-72
2022/10/01 05:01:20;;;;;;;8.98;5.32;;;;;;;13.94;100.00;100678.25;5040511;28;20046;-72
2022/10/01 05:03:48;;;;;;;9.40;5.63;;;;;;;13.94;100.00;100678.25;5046255;28;20045;-71
2022/10/01 05:06:19;;;;;;;10.48;6.10;;;;;;;13.94;100.00;100678.25;5044018;28;20761;-72
2022/10/01 05:08:48;;;;;;;9.38;4.78;;;;;;;13.91;100.00;100684.34;5044383;28;20387;-72
2022/10/01 05:11:17;;;;;;;7.93;5.13;;;;;;;13.95;100.00;100679.06;5041538;28;20053;-72
2022/10/01 05:13:45;;;;;;;9.93;5.97;;;;;;;13.88;100.00;100695.94;5033706;28;20065;-72
2022/10/01 05:16:13;;;;;;;7.85;6.10;;;;;;;13.90;100.00;100695.66;5015055;28;20053;-72
2022/10/01 05:18:42;;;;;;;8.50;5.60;;;;;;;13.89;100.00;100697.56;5043263;28;20037;-72
2022/10/01 05:21:10;;;;;;;12.23;6.15;;;;;;;13.85;100.00;100702.06;5046254;28;20056;-71
2022/10/01 05:23:38;;;;;;;10.63;5.65;;;;;;;13.76;100.00;100699.16;5045081;28;20045;-72
2022/10/01 05:26:06;;;;;;;11.07;5.80;;;;;;;13.84;100.00;100700.44;5035908;28;20046;-71
2022/10/01 05:28:35;;;;;;;8.23;5.60;;;;;;;13.88;100.00;100706.94;5042214;28;20059;-71
2022/10/01 05:31:03;;;;;;;9.32;5.80;;;;;;;13.98;100.00;100700.47;5039923;28;20049;-72
2022/10/01 05:33:33;;;;;;;9.65;6.38;;;;;;;13.98;100.00;100701.28;5045486;28;20415;-72
2022/10/01 05:36:02;;;;;;;9.35;6.28;;;;;;;13.95;100.00;100710.16;5044206;28;20044;-72
2022/10/01 05:38:30;;;;;;;10.65;6.25;;;;;;;13.97;100.00;100716.16;5036431;28;20037;-72
2022/10/01 05:40:57;;;;;;;7.72;5.22;;;;;;;13.96;100.00;100717.28;5048448;28;20386;-72
2022/10/01 05:43:25;;;;;;;8.30;5.72;;;;;;;14.12;100.00;100717.03;5051398;28;20053;-72
2022/10/01 05:45:54;;;;;;;7.90;5.55;;;;;;;14.05;100.00;100716.59;5002940;28;20518;-72
2022/10/01 05:48:22;;;;;;;9.05;5.82;;;;;;;14.21;100.00;100731.75;5051164;28;20045;-72
2022/10/01 05:50:50;;;;;;;6.90;5.20;;;;;;;14.17;100.00;100733.47;5052934;28;20041;-72
2022/10/01 05:53:18;;;;;;;10.75;5.88;;;;;;;14.22;100.00;100735.31;5034793;28;20499;-72
2022/10/01 05:55:46;;;;;;;9.98;6.20;;;;;;;14.37;100.00;100734.22;5048112;28;20064;-72
2022/10/01 05:58:15;;;;;;;10.40;6.85;;;;;;;14.46;100.00;100743.44;5036116;28;20041;-72
2022/10/01 06:00:43;;;;;;;9.93;6.30;;;;;;;14.68;100.00;100743.88;5043975;28;20487;-72
2022/10/01 06:03:11;;;;;;;8.55;5.88;;;;;;;14.73;100.00;100746.53;5043822;28;20048;-72
2022/10/01 06:05:42;;;;;;;11.23;7.10;;;;;;;14.84;100.00;100758.22;5035035;28;20059;-72
2022/10/01 06:08:10;;;;;;;10.40;6.40;;;;;;;15.09;100.00;100764.34;5032222;28;20049;-72
2022/10/01 06:10:39;;;;;;;9.88;7.03;;;;;;;15.10;100.00;100764.03;5046423;28;20044;-72
2022/10/01 06:13:07;;;;;;;10.40;6.93;;;;;;;15.14;100.00;100773.34;5032556;28;20492;-72
2022/10/01 06:15:36;;;;;;;8.30;6.45;;;;;;;15.25;100.00;100784.97;5031828;28;20060;-71
2022/10/01 06:18:07;;;;;;;8.52;6.25;;;;;;;15.37;100.00;100778.94;5031123;28;20058;-72
2022/10/01 06:20:37;;;;;;;9.27;6.18;;;;;;;15.53;99.27;100784.13;5032192;28;20389;-73
2022/10/01 06:23:08;;;;;;;11.13;6.55;;;;;;;15.66;98.46;100788.00;5031356;28;20053;-72
2022/10/01 06:25:40;;;;;;;;;;;;;;;15.68;97.84;100785.72;5033241;28;20480;-73
2022/10/01 06:28:10;;;;;;;7.57;5.60;;;;;;;15.89;97.19;100790.81;5015024;28;19932;-73
2022/10/01 06:30:39;;;;;;;10.70;6.35;;;;;;;16.09;95.47;100790.34;5032304;28;20060;-73
2022/10/01 06:33:10;;;;;;;7.82;5.72;;;;;;;16.04;95.12;100793.22;5031771;28;20056;-72
2022/10/01 06:35:48;;;;;;;10.40;5.43;;;;;;;16.06;95.05;100802.03;5031576;28;20061;-73
2022/10/01 06:38:21;;;;;;;7.75;5.60;;;;;;;16.29;93.52;100804.00;5032684;28;20049;-72
2022/10/01 06:40:57;;;;;;;9.75;5.50;;;;;;;16.35;94.06;100803.56;5014818;28;20049;-72
2022/10/01 06:43:27;;;;;;;9.07;5.68;;;;;;;16.57;93.27;100812.94;5032505;28;20449;-71
2022/10/01 06:45:55;;;;;;;6.28;4.95;;;;;;;16.76;91.94;100807.22;5032539;28;20407;-71
2022/10/01 06:48:23;;;;;;;6.63;4.78;;;;;;;16.88;91.37;100803.06;5031593;28;20121;-72
2022/10/01 06:50:51;;;;;;;8.32;5.38;;;;;;;16.74;91.38;100803.13;5030704;28;20048;-71
2022/10/01 06:53:19;;;;;;;8.23;5.07;;;;;;;16.84;91.70;100802.88;5031765;28;20075;-72
2022/10/01 06:55:48;;;;;;;7.45;4.93;;;;;;;16.90;90.87;100811.84;5031748;28;20508;-72
2022/10/01 06:58:19;;;;;;;7.63;4.80;;;;;;;17.07;90.09;100802.84;5031544;28;20099;-72
2022/10/01 07:00:48;;;;;;;8.45;5.32;;;;;;;17.27;89.04;100800.66;5031598;28;20068;-72
2022/10/01 07:03:19;;;;;;;6.82;5.07;;;;;;;17.39;89.52;100809.13;5031305;28;20045;-71
2022/10/01 07:05:49;;;;;;;9.93;5.22;;;;;;;17.50;89.45;100808.84;5032088;28;20049;-72
2022/10/01 07:08:17;;;;;;;8.38;5.63;;;;;;;17.67;88.99;100814.41;5031765;28;20057;-72
2022/10/01 07:10:46;;;;;;;7.43;5.35;;;;;;;17.64;86.47;100815.06;5031969;28;20060;-70
2022/10/01 07:13:16;;;;;;;10.63;6.50;;;;;;;17.96;86.73;100818.53;5031611;28;20045;-69
2022/10/01 07:15:44;;;;;;;9.85;6.00;;;;;;;17.88;86.08;100816.56;5030922;28;20044;-69
2022/10/01 07:18:13;;;;;;;8.93;6.57;;;;;;;17.67;87.79;100830.19;5030721;28;20641;-70
2022/10/01 07:20:41;;;;;;;10.75;5.75;;;;;;;17.76;88.06;100830.22;5031093;28;20046;-69
2022/10/01 07:23:13;;;;;;;8.35;5.75;;;;;;;17.72;87.02;100813.44;5031826;28;20046;-71
2022/10/01 07:25:42;;;;;;;8.65;5.53;;;;;;;17.84;87.54;100816.38;5031005;28;20052;-71
2022/10/01 07:28:18;;;;;;;8.73;5.38;;;;;;;17.81;87.30;100816.22;5031142;28;20053;-71
2022/10/01 07:31:06;;;;;;;10.05;6.32;;;;;;;17.86;87.18;100818.84;5044924;28;20056;-72
2022/10/01 07:33:33;;;;;;;9.23;6.40;;;;;;;17.81;87.52;100814.28;5024304;28;20052;-71
2022/10/01 07:36:05;;;;;;;6.95;5.05;;;;;;;17.84;86.25;100812.81;5042071;28;20046;-71
2022/10/01 07:38:34;;;;;;;10.35;5.28;;;;;;;18.18;85.32;100811.22;5027216;28;20053;-71
2022/10/01 07:41:02;;;;;;;11.10;5.35;;;;;;;18.23;85.48;100822.13;5030436;28;20515;-71
2022/10/01 07:43:32;;;;;;;8.95;5.65;;;;;;;18.48;82.82;100827.19;5027578;28;20060;-71
2022/10/01 07:46:01;;;;;;;7.35;5.13;;;;;;;18.74;82.47;100829.91;5040606;28;20082;-71
2022/10/01 07:48:29;;;;;;;7.13;5.22;;;;;;;18.86;81.70;100822.88;5030132;28;20050;-71
2022/10/01 07:50:57;;;;;;;7.13;5.32;;;;;;;18.86;80.65;100826.44;5030916;28;20408;-72
2022/10/01 07:53:26;;;;;;;5.40;4.82;;;;;;;18.95;81.57;100826.41;5030408;28;20060;-72
2022/10/01 07:55:54;;;;;;;8.07;5.25;;;;;;;19.03;80.45;100831.16;5030825;28;20500;-72
2022/10/01 07:58:22;;;;;;;6.38;4.80;;;;;;;19.05;80.20;100834.41;5012956;28;20049;-72
2022/10/01 08:00:54;;;;;;;7.03;5.20;;;;;;;19.28;80.04;100836.09;5032030;28;20406;-71
2022/10/01 08:03:24;;;;;;;6.60;5.18;;;;;;;19.28;78.54;100839.72;5040649;28;20480;-71
2022/10/01 08:05:53;;;;;;;7.65;5.57;;;;;;;19.66;77.30;100840.00;5038504;28;20072;-71
2022/10/01 08:08:22;;;;;;;10.35;6.50;;;;;;;19.88;76.00;100842.47;5033714;28;20049;-71
2022/10/01 08:10:54;;;;;;;8.48;5.82;;;;;;;20.14;74.81;100852.59;5034224;28;20546;-72
2022/10/01 08:13:24;;;;;;;8.43;5.38;;;;;;;19.79;74.79;100863.91;5015821;28;20057;-71
2022/10/01 08:15:53;;;;;;;9.63;5.55;;;;;;;19.68;76.21;100869.06;5041777;28;20041;-73
2022/10/01 08:18:24;;;;;;;9.50;7.10;;;;;;;19.26;78.08;100858.63;5040955;28;20085;-73
2022/10/01 08:20:52;;;;;;;7.68;5.50;;;;;;;19.45;76.53;100866.56;5043159;28;20060;-73
2022/10/01 08:23:20;;;;;;;7.43;5.18;;;;;;;19.39;77.50;100864.28;5032624;28;20060;-72
2022/10/01 08:25:48;;;;;;;7.63;5.90;;;;;;;19.75;76.59;100865.75;5033088;28;20045;-72
2022/10/01 08:28:17;;;;;;;10.43;6.75;;;;;;;19.94;76.03;100847.81;5040335;28;20052;-73
2022/10/01 08:30:45;;;;;;;8.88;6.30;;;;;;;19.85;75.45;100856.22;5038733;28;20033;-72
2022/10/01 08:33:13;;;;;;;9.93;6.55;;;;;;;20.30;74.71;100856.72;5046832;28;20060;-73
2022/10/01 08:35:45;;;;;;;13.00;6.70;;;;;;;20.44;73.09;100856.44;5048696;28;20071;-73
2022/10/01 08:38:13;;;;;;;9.30;6.55;;;;;;;20.16;73.49;100859.78;5045001;28;20052;-73
2022/10/01 08:40:48;;;;;;;8.18;6.03;;;;;;;20.22;72.98;100861.19;5020630;28;20049;-73
2022/10/01 08:43:31;;;;;;;12.88;6.70;;;;;;;20.07;74.73;100863.44;5041397;28;20049;-73
2022/10/01 08:46:21;;;;;;;14.88;7.45;;;;;;;19.68;77.47;100855.16;5033947;28;20077;-73
2022/10/01 08:49:21;;;;;;;12.48;7.13;;;;;;;19.99;76.30;100861.56;5033823;28;20405;-72
2022/10/01 08:52:02;;;;;;;11.38;7.25;;;;;;;19.60;76.19;100856.84;5021032;28;20052;-73
2022/10/01 08:54:35;;;;;;;13.63;7.43;;;;;;;19.92;76.56;100866.78;5034141;28;20049;-73
2022/10/01 08:57:11;;;;;;;12.48;7.63;;;;;;;20.00;75.50;100877.06;5015916;28;20053;-72
2022/10/01 08:59:41;;;;;;;15.60;7.30;;;;;;;20.18;73.03;100874.16;5033374;28;20042;-72
2022/10/01 09:02:22;;;;;;;13.20;7.65;;;;;;;20.14;73.74;100872.03;5032884;28;20042;-75
2022/10/01 09:04:56;;;;;;;13.02;7.95;;;;;;;20.32;72.85;100871.91;5000022;28;20060;-75
2022/10/01 09:07:38;;;;;;;15.80;8.80;;;;;;;20.30;71.92;100867.84;5034198;28;20045;-76
2022/10/01 09:10:35;;;;;;;17.52;9.25;;;;;;;20.38;71.89;100870.53;5033318;28;20053;-75
2022/10/01 09:13:21;;;;;;;;;;;;;;;20.48;71.52;100876.84;5027230;28;20040;-74
2022/10/01 09:16:21;;;;;;;15.57;7.72;;;;;;;20.44;71.94;100867.56;5034312;28;19925;-73
2022/10/01 09:18:57;;;;;;;13.52;8.18;;;;;;;20.16;71.83;100870.88;4944334;28;20055;-74
2022/10/01 09:21:43;;;;;;;11.90;7.45;;;;;;;20.20;72.62;100875.44;5029288;28;20503;-65
2022/10/01 09:24:21;;;;;;;16.13;8.55;;;;;;;20.22;72.96;100875.91;5033391;28;20057;-66
2022/10/01 09:26:49;;;;;;;15.35;8.73;;;;;;;20.47;71.14;100876.03;5033088;28;20396;-65
2022/10/01 09:29:26;;;;;;;17.02;8.88;;;;;;;20.17;72.10;100865.00;5032177;28;20053;-65
2022/10/01 09:31:55;;;;;;;15.23;8.35;;;;;;;20.38;71.76;100865.00;5033376;28;20061;-66
2022/10/01 09:34:33;;;;;;;14.57;8.30;;;;;;;20.50;71.83;100864.25;5032680;28;20071;-66
2022/10/01 09:37:13;;;;;;;18.52;9.50;;;;;;;20.29;72.94;100855.94;5033344;28;20064;-65
2022/10/01 09:39:50;;;;;;;16.85;9.48;;;;;;;20.47;72.72;100862.13;5033836;28;20392;-66
2022/10/01 09:42:19;;;;;;;18.27;9.02;;;;;;;20.61;71.19;100856.28;5032834;28;20056;-66
2022/10/01 09:44:48;;;;;;;13.13;7.43;;;;;;;20.55;69.67;100857.66;5032085;28;20041;-65
2022/10/01 09:47:19;;;;;;;14.20;7.55;;;;;;;20.53;69.73;100855.19;5032433;28;20053;-65
2022/10/01 09:49:49;;;;;;;17.83;9.13;;;;;;;20.57;69.96;100858.09;5033818;28;20487;-65
2022/10/01 09:52:27;;;;;;;13.65;8.38;;;;;;;20.72;70.93;100858.63;5033674;28;20049;-70
2022/10/01 09:55:01;;;;;;;17.02;9.02;;;;;;;20.81;71.67;100849.03;5033279;28;20053;-71
2022/10/01 09:57:37;;;;;;;18.67;9.18;;;;;;;20.48;69.83;100851.84;5031712;28;20061;-73
2022/10/01 10:00:16;;;;;;;19.45;9.13;;;;;;;20.64;69.60;100850.00;5033933;28;20052;-73
2022/10/01 10:02:53;;;;;;;18.20;8.63;;;;;;;20.78;70.29;100843.34;5036832;28;20045;-72
2022/10/01 10:05:26;;;;;;;19.98;9.90;;;;;;;20.94;69.96;100847.16;5044222;28;20514;-73
2022/10/01 10:08:02;;;;;;;18.67;8.65;;;;;;;21.45;67.45;100851.59;5041204;28;20042;-74
2022/10/01 10:10:34;;;;;;;19.10;8.30;;;;;;;21.54;66.71;100840.31;5031932;28;20050;-73
2022/10/01 10:13:09;;;;;;;18.98;8.63;;;;;;;21.51;66.16;100841.00;5005083;28;20041;-73
2022/10/01 10:15:48;;;;;;;12.20;7.28;;;;;;;21.12;66.54;100823.84;5026556;28;20053;-73
2022/10/01 10:18:26;;;;;;;18.40;8.52;;;;;;;21.05;65.51;100835.53;5030451;28;20049;-70
2022/10/01 10:20:58;;;;;;;16.67;7.78;;;;;;;21.23;65.93;100822.25;5032157;28;20049;-71
2022/10/01 10:23:28;;;;;;;16.08;7.97;;;;;;;21.64;64.35;100821.53;5034207;28;20057;-72
2022/10/01 10:26:01;;;;;;;16.67;7.97;;;;;;;21.81;63.32;100804.59;5012259;28;20041;-72
2022/10/01 10:28:40;;;;;;;16.48;8.57;;;;;;;;;;5029542;28;20064;-71
2022/10/01 10:31:38;;;;;;;12.93;7.20;;;;;;;21.81;63.13;100812.13;5031547;28;20042;-71
2022/10/01 10:34:31;;;;;;;15.73;8.10;;;;;;;22.04;63.36;100806.03;5030020;28;20522;-73
2022/10/01 10:37:04;;;;;;;14.70;7.38;;;;;;;22.19;62.24;100807.25;5031531;28;20049;-71
2022/10/01 10:39:40;;;;;;;11.23;6.95;;;;;;;22.08;61.63;100806.94;5035633;28;20052;-72
2022/10/01 10:42:14;;;;;;;14.00;7.70;;;;;;;21.66;61.92;100808.06;5044927;28;20486;-72
2022/10/01 10:44:46;;;;;;;14.02;7.55;;;;;;;21.47;63.47;100807.50;5038236;28;20061;-72
2022/10/01 10:47:17;;;;;;;12.73;6.63;;;;;;;21.59;63.17;100805.84;5040839;28;20494;-73
2022/10/01 10:50:38;;;;;;;12.77;7.40;;;;;;;21.77;63.18;100802.84;5032171;28;20057;-71
2022/10/01 10:53:23;;;;;;;13.40;6.80;;;;;;;22.33;62.51;100790.13;5020542;28;20133;-72
2022/10/01 10:56:04;;;;;;;12.32;6.68;;;;;;;22.55;61.07;100797.13;5036089;28;20049;-72
2022/10/01 10:58:39;;;;;;;10.73;6.07;;;;;;;22.65;59.42;100801.38;5037517;28;20056;-72
2022/10/01 11:01:12;;;;;;;10.88;6.43;;;;;;;22.11;60.96;100797.88;5024915;28;20585;-72
2022/10/01 11:03:54;;;;;;;12.15;6.57;;;;;;;22.40;61.12;100802.25;5039558;28;20116;-72
2022/10/01 11:06:23;;;;;;;13.45;7.07;;;;;;;22.74;59.99;100807.59;5038371;28;20056;-72
2022/10/01 11:09:06;;;;;;;12.25;7.63;;;;;;;22.97;59.90;100801.38;5041335;28;20052;-72
2022/10/01 11:11:56;;;;;;;13.85;7.13;;;;;;;22.83;60.26;100793.47;5028753;28;20050;-72
2022/10/01 11:14:34;;;;;;;11.52;6.70;;;;;;;22.84;56.74;100786.72;5029697;28;20049;-72
2022/10/01 11:17:33;;;;;;;13.82;6.97;;;;;;;23.22;57.98;100771.28;5028826;28;20052;-72
2022/10/01 11:20:31;;;;;;;9.60;5.95;;;;;;;23.19;58.13;100779.59;5030891;28;20049;-71
2022/10/01 11:23:26;;;;;;;14.32;7.55;;;;;;;22.69;59.47;100769.59;5032921;28;20052;-71
2022/10/01 11:25:57;;;;;;;13.90;8.10;;;;;;;22.33;59.75;100776.19;5033538;28;20049;-72
2022/10/01 11:28:31;;;;;;;15.07;8.43;;;;;;;22.61;60.27;100787.31;5031573;28;20052;-71
2022/10/01 11:31:16;;;;;;;14.82;8.45;;;;;;;22.74;59.33;100781.66;5028128;28;20041;-71
2022/10/01 11:34:10;;;;;;;11.57;7.73;;;;;;;22.55;59.00;100789.56;5029263;28;20049;-70
2022/10/01 11:36:59;;;;;;;13.10;8.20;;;;;;;22.57;59.24;100810.72;5024939;28;20400;-72
2022/10/01 11:39:30;;;;;;;12.50;7.10;;;;;;;22.45;60.17;100804.00;5030576;28;20530;-71
2022/10/01 11:42:09;;;;;;;12.37;6.97;;;;;;;23.12;57.98;100815.69;5008523;28;20050;-71
2022/10/01 11:45:02;;;;;;;12.15;7.75;;;;;;;23.13;56.04;100800.56;5029432;28;20052;-72
2022/10/01 11:47:43;;;;;;;10.20;6.40;;;;;;;23.51;56.04;100795.50;5028541;28;20053;-72
2022/10/01 11:50:19;;;;;;;11.85;6.88;;;;;;;23.24;55.98;100804.44;5034947;28;20056;-72